createdAt,value
2019-03-30T00:01:25.583Z,61.70
2019-03-30T00:05:28.663Z,62.40
2019-03-30T00:09:31.680Z,62.90
2019-03-30T00:13:34.677Z,63.30
2019-03-30T00:17:37.668Z,63.40
2019-03-30T00:21:40.676Z,64.10
2019-03-30T00:25:43.740Z,65.00
2019-03-30T00:29:47.180Z,65.10
2019-03-30T00:33:50.244Z,64.90
2019-03-30T00:37:53.248Z,65.10
2019-03-30T00:41:56.849Z,65.80
2019-03-30T00:45:59.934Z,66.20
2019-03-30T00:50:05.188Z,66.30
2019-03-30T00:54:08.246Z,66.00
2019-03-30T00:58:11.304Z,65.20
2019-03-30T01:02:14.304Z,66.50
2019-03-30T01:06:17.413Z,66.40
2019-03-30T01:10:20.407Z,65.30
2019-03-30T01:14:24.509Z,64.90
2019-03-30T01:18:27.833Z,66.20
2019-03-30T01:22:30.844Z,66.20
2019-03-30T01:26:33.929Z,66.00
2019-03-30T01:30:36.993Z,65.80
2019-03-30T01:34:40.072Z,66.30
2019-03-30T01:38:43.079Z,67.30
2019-03-30T01:42:46.088Z,69.10
2019-03-30T01:46:49.096Z,69.30
2019-03-30T01:50:53.677Z,68.70
2019-03-30T01:54:56.901Z,68.10
2019-03-30T01:58:59.914Z,68.40
2019-03-30T02:03:02.909Z,68.00
2019-03-30T02:07:05.912Z,68.00
2019-03-30T02:11:08.906Z,68.10
2019-03-30T02:15:12.109Z,68.20
2019-03-30T02:19:15.223Z,68.40
2019-03-30T02:23:18.602Z,68.80
2019-03-30T02:27:21.612Z,68.50
2019-03-30T02:31:24.658Z,68.10
2019-03-30T02:35:27.667Z,68.30
2019-03-30T02:39:30.663Z,68.30
2019-03-30T02:43:33.676Z,68.20
2019-03-30T02:47:36.689Z,68.20
2019-03-30T02:51:41.530Z,67.90
2019-03-30T02:55:44.536Z,67.40
2019-03-30T02:59:47.552Z,68.10
2019-03-30T03:03:50.550Z,68.20
2019-03-30T03:07:53.542Z,69.00
2019-03-30T03:11:56.552Z,69.20
2019-03-30T03:15:59.538Z,69.50
2019-03-30T03:20:04.244Z,69.70
2019-03-30T03:24:07.251Z,69.60
2019-03-30T03:28:10.291Z,69.20
2019-03-30T03:32:13.297Z,69.70
2019-03-30T03:36:16.297Z,69.70
2019-03-30T03:40:19.289Z,69.50
2019-03-30T03:44:22.286Z,71.00
2019-03-30T03:48:25.315Z,71.50
2019-03-30T03:52:29.116Z,71.70
2019-03-30T03:56:33.421Z,72.00
2019-03-30T04:00:36.521Z,72.10
2019-03-30T04:04:39.708Z,71.70
2019-03-30T04:08:44.712Z,71.10
2019-03-30T04:12:48.117Z,71.90
2019-03-30T04:16:51.133Z,72.50
2019-03-30T04:20:54.133Z,72.20
2019-03-30T04:24:57.283Z,71.80
2019-03-30T04:29:00.268Z,72.20
2019-03-30T04:33:03.269Z,72.20
2019-03-30T04:37:06.293Z,71.70
2019-03-30T04:41:09.289Z,71.30
2019-03-30T04:45:12.283Z,71.50
2019-03-30T04:49:15.280Z,71.90
2019-03-30T04:53:19.130Z,71.80
2019-03-30T04:57:22.129Z,72.60
2019-03-30T05:01:25.125Z,72.50
2019-03-30T05:05:28.132Z,72.70
2019-03-30T05:09:31.145Z,72.50
2019-03-30T05:13:34.149Z,72.30
2019-03-30T05:17:46.935Z,72.30
2019-03-30T05:21:42.065Z,72.60
2019-03-30T05:25:45.056Z,72.50
2019-03-30T05:29:48.159Z,72.90
2019-03-30T05:33:51.168Z,72.20
2019-03-30T05:37:54.241Z,72.10
2019-03-30T05:41:57.238Z,71.60
2019-03-30T05:46:00.233Z,71.00
2019-03-30T05:50:06.435Z,70.60
2019-03-30T05:54:10.260Z,69.70
2019-03-30T05:58:13.255Z,68.90
2019-03-30T06:02:16.260Z,68.90
2019-03-30T06:06:19.295Z,68.00
2019-03-30T06:10:22.301Z,67.40
2019-03-30T06:14:25.299Z,67.00
2019-03-30T06:18:28.310Z,66.20
2019-03-30T06:22:40.271Z,65.70
2019-03-30T06:26:36.384Z,65.20
2019-03-30T06:30:39.402Z,62.90
2019-03-30T06:34:42.408Z,61.90
2019-03-30T06:38:45.394Z,60.70
2019-03-30T06:42:48.389Z,59.50
2019-03-30T06:46:51.381Z,58.60
2019-03-30T06:50:54.435Z,58.20
2019-03-30T06:54:58.067Z,57.70
2019-03-30T06:59:01.072Z,56.40
2019-03-30T07:03:05.079Z,56.50
2019-03-30T07:07:08.311Z,55.60
2019-03-30T07:11:20.976Z,55.40
2019-03-30T07:15:16.554Z,54.20
2019-03-30T07:19:20.860Z,53.90
2019-03-30T07:23:23.859Z,51.90
2019-03-30T07:27:26.853Z,51.00
2019-03-30T07:31:29.865Z,50.30
2019-03-30T07:35:32.864Z,49.00
2019-03-30T07:39:35.861Z,48.30
2019-03-30T07:43:38.864Z,46.90
2019-03-30T07:47:41.858Z,45.20
2019-03-30T07:51:44.882Z,45.10
2019-03-30T07:55:48.385Z,45.00
2019-03-30T07:59:51.388Z,44.80
2019-03-30T08:03:54.427Z,43.00
2019-03-30T08:07:57.452Z,42.00
2019-03-30T08:12:00.436Z,40.40
2019-03-30T08:16:03.773Z,37.90
2019-03-30T08:20:07.033Z,36.30
2019-03-30T08:24:10.136Z,34.20
2019-03-30T08:28:13.140Z,31.60
2019-03-30T08:32:16.198Z,30.50
2019-03-30T08:36:19.228Z,31.20
2019-03-30T08:40:22.349Z,30.20
2019-03-30T08:44:25.494Z,28.70
2019-03-30T08:48:28.564Z,28.70
2019-03-30T08:52:31.641Z,28.80
2019-03-30T08:56:35.522Z,27.90
2019-03-30T09:00:41.323Z,28.00
2019-03-30T09:04:44.340Z,27.20
2019-03-30T09:08:48.731Z,26.90
2019-03-30T09:12:51.837Z,27.00
2019-03-30T09:16:54.837Z,27.40
2019-03-30T09:20:57.847Z,25.80
2019-03-30T09:25:00.852Z,26.40
2019-03-30T09:29:03.933Z,27.20
2019-03-30T09:33:06.992Z,28.20
2019-03-30T09:37:10.003Z,27.20
2019-03-30T09:41:13.017Z,27.70
2019-03-30T09:45:16.232Z,26.20
2019-03-30T09:49:19.278Z,25.30
2019-03-30T09:53:22.305Z,27.60
2019-03-30T09:57:25.819Z,27.20
2019-03-30T10:01:28.952Z,27.70
2019-03-30T10:05:32.043Z,28.30
2019-03-30T10:09:35.023Z,29.80
2019-03-30T10:13:39.172Z,28.10
2019-03-30T10:17:42.399Z,28.20
2019-03-30T10:21:46.110Z,28.30
2019-03-30T10:25:49.339Z,27.50
2019-03-30T10:29:52.384Z,27.10
2019-03-30T10:33:55.389Z,26.60
2019-03-30T10:37:58.395Z,26.50
2019-03-30T10:42:01.868Z,25.90
2019-03-30T10:46:05.881Z,26.00
2019-03-30T10:50:10.765Z,27.10
2019-03-30T10:54:13.845Z,26.90
2019-03-30T10:58:20.087Z,26.90
2019-03-30T11:02:23.232Z,26.80
2019-03-30T11:06:26.239Z,27.60
2019-03-30T11:10:29.241Z,26.80
2019-03-30T11:14:32.257Z,26.00
2019-03-30T11:18:36.073Z,26.90
2019-03-30T11:22:39.129Z,26.80
2019-03-30T11:26:42.145Z,27.00
2019-03-30T11:30:45.288Z,27.50
2019-03-30T11:34:48.297Z,26.40
2019-03-30T11:38:51.327Z,27.40
2019-03-30T11:42:54.365Z,27.40
2019-03-30T11:46:57.365Z,26.30
2019-03-30T11:51:00.396Z,26.60
2019-03-30T11:55:05.220Z,26.30
2019-03-30T11:59:09.220Z,27.00
2019-03-30T12:03:12.305Z,27.40
2019-03-30T12:07:15.389Z,26.90
2019-03-30T12:11:18.531Z,26.50
2019-03-30T12:15:21.567Z,27.60
2019-03-30T12:19:24.562Z,28.30
2019-03-30T12:23:27.587Z,28.90
2019-03-30T12:27:30.591Z,26.60
2019-03-30T12:31:33.680Z,27.20
2019-03-30T12:35:36.695Z,25.80
2019-03-30T12:39:39.698Z,25.60
2019-03-30T12:43:42.693Z,27.10
2019-03-30T12:47:45.795Z,26.30
2019-03-30T12:51:48.792Z,27.70
2019-03-30T12:55:51.788Z,26.50
2019-03-30T12:59:59.158Z,24.30
2019-03-30T13:04:00.980Z,25.30
2019-03-30T13:08:04.007Z,24.50
2019-03-30T13:12:07.003Z,26.00
2019-03-30T13:16:10.028Z,25.40
2019-03-30T13:20:13.259Z,26.30
2019-03-30T13:24:16.252Z,25.20
2019-03-30T13:28:19.272Z,25.20
2019-03-30T13:32:22.282Z,25.70
2019-03-30T13:36:38.876Z,25.40
2019-03-30T13:40:41.943Z,25.20
2019-03-30T13:44:44.948Z,26.20
2019-03-30T13:48:47.957Z,24.40
2019-03-30T13:52:50.956Z,24.50
2019-03-30T13:56:54.140Z,24.00
2019-03-30T14:00:59.236Z,24.80
2019-03-30T14:05:04.290Z,24.20
2019-03-30T14:09:07.321Z,23.80
2019-03-30T14:13:10.324Z,24.00
2019-03-30T14:17:14.015Z,24.90
2019-03-30T14:21:17.012Z,25.60
2019-03-30T14:25:20.048Z,31.00
2019-03-30T14:29:23.176Z,25.60
2019-03-30T14:33:26.248Z,26.00
2019-03-30T14:37:29.349Z,25.70
2019-03-30T14:41:32.368Z,26.00
2019-03-30T14:45:35.364Z,27.20
2019-03-30T14:49:38.366Z,26.60
2019-03-30T14:53:41.386Z,26.40
2019-03-30T14:57:44.395Z,26.40
2019-03-30T15:01:48.859Z,26.40
2019-03-30T15:05:51.864Z,28.20
2019-03-30T15:09:54.884Z,27.80
2019-03-30T15:13:57.991Z,27.20
2019-03-30T15:18:01.007Z,37.60
2019-03-30T15:22:04.743Z,27.90
2019-03-30T15:26:07.868Z,28.90
2019-03-30T15:30:11.076Z,27.30
2019-03-30T15:34:14.080Z,27.40
2019-03-30T15:38:17.096Z,27.90
2019-03-30T15:42:20.148Z,27.40
2019-03-30T15:46:23.393Z,28.00
2019-03-30T15:50:26.376Z,27.60
2019-03-30T15:54:29.396Z,27.50
2019-03-30T15:58:32.392Z,26.60
2019-03-30T16:02:36.299Z,27.20
2019-03-30T16:06:39.296Z,28.40
2019-03-30T16:10:42.411Z,27.10
2019-03-30T16:14:45.412Z,28.20
2019-03-30T16:18:48.423Z,28.20
2019-03-30T16:22:51.433Z,28.30
2019-03-30T16:26:54.485Z,28.40
2019-03-30T16:30:57.691Z,28.10
2019-03-30T16:35:00.836Z,28.90
2019-03-30T16:39:05.128Z,29.40
2019-03-30T16:43:08.619Z,28.90
2019-03-30T16:47:11.867Z,29.40
2019-03-30T16:51:14.869Z,28.50
2019-03-30T16:55:17.873Z,28.60
2019-03-30T16:59:20.876Z,28.80
2019-03-30T17:03:24.059Z,30.00
2019-03-30T17:07:27.068Z,29.10
2019-03-30T17:11:30.088Z,29.00
2019-03-30T17:15:33.169Z,30.00
2019-03-30T17:19:36.252Z,29.50
2019-03-30T17:23:39.254Z,29.70
2019-03-30T17:27:56.929Z,30.20
2019-03-30T17:31:47.179Z,30.30
2019-03-30T17:35:50.203Z,30.60
2019-03-30T17:39:53.202Z,30.70
2019-03-30T17:43:56.250Z,32.40
2019-03-30T17:47:59.274Z,32.90
2019-03-30T17:52:02.279Z,32.30
2019-03-30T17:56:05.472Z,32.10
2019-03-30T18:00:11.474Z,33.60
2019-03-30T18:04:15.692Z,33.20
2019-03-30T18:08:18.800Z,34.90
2019-03-30T18:12:21.824Z,41.50
2019-03-30T18:16:24.941Z,35.30
2019-03-30T18:20:27.949Z,35.30
2019-03-30T18:24:31.010Z,35.90
2019-03-30T18:28:34.172Z,37.60
2019-03-30T18:32:37.193Z,38.80
2019-03-30T18:36:41.364Z,38.40
2019-03-30T18:40:44.458Z,38.00
2019-03-30T18:44:48.980Z,38.20
2019-03-30T18:48:51.990Z,38.90
2019-03-30T18:52:55.695Z,39.40
2019-03-30T18:56:58.823Z,40.00
2019-03-30T19:01:01.824Z,41.60
2019-03-30T19:05:05.476Z,40.40
2019-03-30T19:09:08.479Z,42.40
2019-03-30T19:13:11.497Z,40.80
2019-03-30T19:17:14.518Z,40.80
2019-03-30T19:21:17.520Z,42.50
2019-03-30T19:25:20.650Z,42.80
2019-03-30T19:29:23.679Z,43.20
2019-03-30T19:33:26.722Z,41.20
2019-03-30T19:37:30.180Z,41.70
2019-03-30T19:41:33.195Z,43.20
2019-03-30T19:45:36.229Z,42.30
2019-03-30T19:49:39.366Z,45.00
2019-03-30T19:53:42.392Z,45.20
2019-03-30T19:57:45.470Z,45.20
2019-03-30T20:01:48.521Z,46.40
2019-03-30T20:05:53.760Z,47.80
2019-03-30T20:09:56.891Z,48.10
2019-03-30T20:13:59.892Z,47.40
2019-03-30T20:18:02.961Z,47.40
2019-03-30T20:22:06.107Z,48.20
2019-03-30T20:26:09.172Z,49.00
2019-03-30T20:30:13.046Z,48.60
2019-03-30T20:34:16.104Z,49.00
2019-03-30T20:38:19.211Z,48.60
2019-03-30T20:42:22.962Z,49.10
2019-03-30T20:46:26.507Z,49.00
2019-03-30T20:50:29.628Z,50.00
2019-03-30T20:54:32.676Z,50.00
2019-03-30T20:58:35.683Z,50.10
2019-03-30T21:02:38.975Z,50.00
2019-03-30T21:06:42.206Z,48.80
2019-03-30T21:10:45.588Z,49.10
2019-03-30T21:14:48.632Z,49.70
2019-03-30T21:18:51.646Z,49.40
2019-03-30T21:22:54.829Z,49.80
2019-03-30T21:26:58.036Z,49.30
2019-03-30T21:31:01.064Z,50.30
2019-03-30T21:35:07.384Z,50.90
2019-03-30T21:39:10.396Z,50.90
2019-03-30T21:43:13.403Z,50.30
2019-03-30T21:47:16.448Z,50.50
2019-03-30T21:51:19.665Z,51.70
2019-03-30T21:55:22.720Z,51.50
2019-03-30T21:59:25.726Z,52.60
2019-03-30T22:03:28.786Z,52.00
2019-03-30T22:07:33.200Z,51.00
2019-03-30T22:11:36.216Z,52.50
2019-03-30T22:15:39.224Z,51.90
2019-03-30T22:19:42.331Z,52.30
2019-03-30T22:23:45.672Z,52.50
2019-03-30T22:27:48.772Z,52.00
2019-03-30T22:31:51.792Z,52.00
2019-03-30T22:35:54.865Z,52.40
2019-03-30T22:39:57.947Z,52.50
2019-03-30T22:44:01.145Z,53.30
2019-03-30T22:48:04.319Z,52.80
2019-03-30T22:52:07.444Z,53.60
2019-03-30T22:56:10.574Z,54.30
2019-03-30T23:00:38.540Z,53.50
2019-03-30T23:04:37.459Z,53.60
